Time;durP1;ratioP1;P1;durP2;ratioP2;P2;SDS_P1;SDS_P2;PMS_P1;PMS_P2;Temp;Humidity;BMP_temperature;BMP_pressure;BME280_temperature;BME280_humidity;BME280_pressure;Samples;Min_cycle;Max_cycle;Signal;HPM_P1;HPM_P2
2021/07/05 00:02:44;;;;;;;11.15;8.90;;;;;;;23.70;100.00;100404.31;4867793;29;20206;-77
2021/07/05 00:05:30;;;;;;;10.43;8.15;;;;;;;23.19;100.00;100411.72;4867348;29;20534;-77
2021/07/05 00:08:16;;;;;;;10.55;8.63;;;;;;;22.84;100.00;100398.28;4882207;29;20108;-77
2021/07/05 00:11:02;;;;;;;12.55;8.27;;;;;;;22.99;100.00;100404.31;4881965;29;20073;-77
2021/07/05 00:13:48;;;;;;;9.95;7.85;;;;;;;23.05;100.00;100399.38;4868015;29;20033;-77
2021/07/05 00:16:34;;;;;;;13.73;7.93;;;;;;;23.35;100.00;100394.44;4868308;29;20049;-77
2021/07/05 00:19:20;;;;;;;11.75;7.80;;;;;;;23.56;100.00;100397.31;4867904;29;20039;-76
2021/07/05 00:22:07;;;;;;;8.57;7.53;;;;;;;23.50;100.00;100392.41;4881887;29;20033;-77
2021/07/05 00:24:52;;;;;;;11.10;7.60;;;;;;;23.50;100.00;100395.09;4867872;29;20029;-77
2021/07/05 00:27:38;;;;;;;10.48;7.47;;;;;;;23.43;100.00;100392.03;4867951;29;20025;-77
2021/07/05 00:30:25;;;;;;;8.95;7.60;;;;;;;23.42;100.00;100382.31;4882314;29;20029;-77
2021/07/05 00:33:11;;;;;;;10.73;7.85;;;;;;;23.35;100.00;100383.75;4866974;29;20526;-76
2021/07/05 00:35:56;;;;;;;7.72;6.90;;;;;;;23.36;100.00;100380.09;4882234;29;20029;-77
2021/07/05 00:38:42;;;;;;;8.15;6.63;;;;;;;23.25;100.00;100384.53;4881664;29;20451;-77
2021/07/05 00:41:29;;;;;;;11.23;7.10;;;;;;;23.42;100.00;100379.66;4867419;29;20455;-77
2021/07/05 00:44:15;;;;;;;9.02;6.57;;;;;;;23.11;100.00;100382.84;4881620;29;20060;-77
2021/07/05 00:47:01;;;;;;;9.60;6.63;;;;;;;23.29;100.00;100376.19;4880921;29;20530;-76
2021/07/05 00:49:47;;;;;;;7.88;6.47;;;;;;;23.38;100.00;100374.63;4867939;29;20033;-76
2021/07/05 00:52:35;;;;;;;7.30;6.03;;;;;;;23.38;100.00;100376.47;4881478;29;20467;-76
2021/07/05 00:55:21;;;;;;;8.00;6.00;;;;;;;23.33;100.00;100374.13;4881768;29;20044;-76
2021/07/05 00:58:07;;;;;;;9.30;6.28;;;;;;;23.24;100.00;100362.28;4881361;29;20128;-76
2021/07/05 01:00:53;;;;;;;6.65;5.68;;;;;;;23.17;100.00;100371.72;4881716;29;20104;-77
2021/07/05 01:03:39;;;;;;;7.45;5.63;;;;;;;23.13;100.00;100375.59;4881342;29;20089;-76
2021/07/05 01:06:26;;;;;;;7.13;6.10;;;;;;;23.27;100.00;100375.44;4881512;29;20029;-76
2021/07/05 01:09:12;;;;;;;12.25;6.40;;;;;;;22.76;100.00;100381.09;4867856;29;20112;-76
2021/07/05 01:11:58;;;;;;;6.85;5.90;;;;;;;22.15;100.00;100379.22;4881382;29;20481;-78
2021/07/05 01:14:44;;;;;;;7.40;5.90;;;;;;;22.13;100.00;100382.97;4881562;29;20033;-77
2021/07/05 01:17:29;;;;;;;10.43;5.70;;;;;;;22.52;100.00;100375.69;4867040;29;20029;-76
2021/07/05 01:20:19;;;;;;;6.95;5.45;;;;;;;22.96;100.00;100383.16;4866897;29;20450;-77
2021/07/05 01:23:08;;;;;;;6.68;4.88;;;;;;;22.93;100.00;100378.88;4866945;29;20375;-77
2021/07/05 01:25:54;;;;;;;6.20;5.07;;;;;;;23.27;100.00;100371.94;4867174;29;20037;-77
2021/07/05 01:28:39;;;;;;;6.45;5.10;;;;;;;22.91;100.00;100375.47;4881279;29;20413;-77
2021/07/05 01:31:25;;;;;;;5.45;4.60;;;;;;;23.06;100.00;100373.47;4881771;29;20461;-78
2021/07/05 01:34:11;;;;;;;7.50;4.78;;;;;;;23.20;100.00;100365.34;4866829;29;20044;-77
2021/07/05 01:36:57;;;;;;;6.28;5.05;;;;;;;23.17;100.00;100368.19;4866684;29;20132;-77
2021/07/05 01:39:43;;;;;;;5.75;4.40;;;;;;;23.28;100.00;100366.44;4867641;29;20029;-77
2021/07/05 01:42:29;;;;;;;8.95;4.75;;;;;;;23.07;100.00;100368.03;4867043;29;20037;-77
2021/07/05 01:45:16;;;;;;;6.43;4.38;;;;;;;23.32;100.00;100370.59;4864631;29;20053;-77
2021/07/05 01:48:01;;;;;;;4.95;4.20;;;;;;;;;;4866604;29;20033;-77
2021/07/05 01:50:48;;;;;;;5.35;4.20;;;;;;;23.40;100.00;100364.69;4866160;29;20452;-77
2021/07/05 01:53:34;;;;;;;7.38;4.47;;;;;;;23.42;100.00;100370.75;4865925;29;20359;-77
2021/07/05 01:56:20;;;;;;;4.93;3.97;;;;;;;23.06;100.00;100366.31;4866107;29;20104;-77
2021/07/05 01:59:06;;;;;;;5.97;4.40;;;;;;;23.15;100.00;100373.66;4865779;29;20474;-77
2021/07/05 02:01:52;;;;;;;5.25;4.20;;;;;;;23.10;100.00;100373.16;4866118;29;20454;-77
2021/07/05 02:04:37;;;;;;;5.18;4.30;;;;;;;23.46;100.00;100364.22;4865000;29;20427;-77
2021/07/05 02:07:23;;;;;;;5.18;3.80;;;;;;;23.29;100.00;100380.69;4866070;29;20058;-77
2021/07/05 02:10:30;;;;;;;5.03;4.00;;;;;;;23.00;100.00;100382.81;4865046;29;20033;-77
2021/07/05 02:13:28;;;;;;;4.90;4.07;;;;;;;23.02;100.00;100386.22;4866047;29;20109;-77
2021/07/05 02:16:14;;;;;;;7.82;4.53;;;;;;;23.06;100.00;100390.38;4865670;29;20029;-76
2021/07/05 02:19:00;;;;;;;7.60;4.60;;;;;;;22.91;100.00;100382.63;4865661;29;20030;-76
2021/07/05 02:21:46;;;;;;;9.35;4.90;;;;;;;22.53;100.00;100384.56;4863796;29;20037;-76
2021/07/05 02:24:33;;;;;;;8.80;5.25;;;;;;;22.70;100.00;100384.19;4865930;29;20044;-77
2021/07/05 02:27:19;;;;;;;6.50;5.07;;;;;;;22.50;100.00;100376.75;4865327;29;20539;-77
2021/07/05 02:30:07;;;;;;;7.82;5.22;;;;;;;23.02;100.00;100377.34;4865613;29;20029;-77
2021/07/05 02:32:55;;;;;;;8.38;5.60;;;;;;;22.84;100.00;100379.56;4865159;29;20049;-77
2021/07/05 02:35:41;;;;;;;7.68;5.88;;;;;;;22.66;100.00;100385.38;4865353;29;20123;-78
2021/07/05 02:38:27;;;;;;;8.90;5.70;;;;;;;22.57;100.00;100389.56;4864674;29;20037;-77
2021/07/05 02:41:13;;;;;;;6.63;5.45;;;;;;;23.13;100.00;100380.94;4863400;29;20455;-77
2021/07/05 02:43:59;;;;;;;10.02;5.75;;;;;;;22.91;100.00;100385.31;4870224;29;20056;-77
2021/07/05 02:46:45;;;;;;;8.45;5.75;;;;;;;22.84;100.00;100392.94;4869363;29;20120;-77
2021/07/05 02:49:30;;;;;;;7.65;6.43;;;;;;;22.62;100.00;100392.75;4869642;29;20025;-77
2021/07/05 02:52:16;;;;;;;10.32;6.93;;;;;;;22.63;100.00;100405.13;4883570;29;20041;-77
2021/07/05 02:55:07;;;;;;;8.10;6.32;;;;;;;22.52;100.00;100393.53;4883206;29;20029;-77
2021/07/05 02:57:54;;;;;;;10.77;6.20;;;;;;;22.54;100.00;100386.25;4869633;29;20097;-77
2021/07/05 03:00:43;;;;;;;7.90;6.25;;;;;;;22.49;100.00;100394.59;4883482;29;20025;-77
2021/07/05 03:03:29;;;;;;;7.85;6.00;;;;;;;22.71;100.00;100401.94;4883582;29;20053;-77
2021/07/05 03:06:15;;;;;;;8.35;6.22;;;;;;;22.81;100.00;100401.16;4869265;29;20040;-77
2021/07/05 03:09:00;;;;;;;9.65;6.32;;;;;;;22.58;100.00;100403.75;4883867;29;20029;-77
2021/07/05 03:11:46;;;;;;;10.70;6.60;;;;;;;22.22;100.00;100406.38;4868580;29;20025;-77
2021/07/05 03:14:32;;;;;;;10.43;6.82;;;;;;;20.82;100.00;100413.16;4883897;29;20048;-76
2021/07/05 03:17:18;;;;;;;11.35;6.90;;;;;;;21.32;100.00;100407.25;4868193;29;20044;-77
2021/07/05 03:20:06;;;;;;;11.52;7.15;;;;;;;20.93;100.00;100412.53;4869203;29;20100;-77
2021/07/05 03:22:54;;;;;;;9.25;7.03;;;;;;;21.23;100.00;100400.72;4882312;29;20036;-77
2021/07/05 03:25:40;;;;;;;10.48;7.38;;;;;;;21.03;100.00;100411.84;4883104;29;20033;-76
2021/07/05 03:28:26;;;;;;;8.43;7.20;;;;;;;21.23;100.00;100405.19;4882351;29;20065;-76
2021/07/05 03:31:12;;;;;;;8.27;7.32;;;;;;;21.31;100.00;100400.22;4882970;29;20366;-76
2021/07/05 03:33:57;;;;;;;14.48;8.45;;;;;;;20.85;100.00;100397.00;4882937;29;20092;-76
2021/07/05 03:36:43;;;;;;;14.57;8.85;;;;;;;21.50;100.00;100400.69;4868212;29;20096;-76
2021/07/05 03:39:29;;;;;;;11.40;8.10;;;;;;;21.78;100.00;100393.41;4882295;29;20032;-77
2021/07/05 03:42:15;;;;;;;9.15;8.02;;;;;;;21.54;100.00;100384.38;4869038;29;20021;-78
2021/07/05 03:45:01;;;;;;;12.48;8.23;;;;;;;21.97;100.00;100387.66;4868199;29;20061;-77
2021/07/05 03:47:47;;;;;;;12.80;9.15;;;;;;;21.90;100.00;100381.91;4882460;29;20040;-77
2021/07/05 03:50:34;;;;;;;9.05;8.10;;;;;;;22.07;100.00;100381.56;4869891;29;20044;-77
2021/07/05 03:53:20;;;;;;;9.70;8.13;;;;;;;22.41;100.00;100374.72;4882278;29;20028;-77
2021/07/05 03:56:06;;;;;;;14.20;8.05;;;;;;;22.57;100.00;100376.22;4882491;29;20056;-77
2021/07/05 03:58:51;;;;;;;12.48;7.28;;;;;;;22.33;100.00;100372.59;4882133;29;20112;-78
2021/07/05 04:01:37;;;;;;;12.07;7.30;;;;;;;22.27;100.00;100372.19;4868734;29;20045;-77
2021/07/05 04:04:23;;;;;;;11.15;7.53;;;;;;;22.43;100.00;100370.13;4867397;29;20042;-77
2021/07/05 04:07:09;;;;;;;9.05;7.03;;;;;;;21.88;100.00;100364.28;4867003;29;20029;-78
2021/07/05 04:09:56;;;;;;;8.85;7.45;;;;;;;21.51;100.00;100376.59;4868695;29;20036;-77
2021/07/05 04:12:43;;;;;;;9.85;6.70;;;;;;;21.77;100.00;100373.03;4868370;29;20103;-77
2021/07/05 04:15:29;;;;;;;12.38;6.72;;;;;;;21.43;100.00;100378.94;4868349;29;20044;-78
2021/07/05 04:18:15;;;;;;;9.18;6.85;;;;;;;22.27;100.00;100377.53;4868951;29;20040;-78
2021/07/05 04:21:00;;;;;;;12.25;7.60;;;;;;;22.17;100.00;100374.66;4882519;29;20033;-78
2021/07/05 04:23:49;;;;;;;11.65;7.63;;;;;;;21.80;100.00;100370.16;4881868;29;20025;-77
2021/07/05 04:26:35;;;;;;;11.18;7.63;;;;;;;22.47;100.00;100374.31;4882081;29;20029;-77
2021/07/05 04:29:21;;;;;;;12.38;7.18;;;;;;;22.44;100.00;100372.69;4881718;29;20364;-77
2021/07/05 04:32:07;;;;;;;13.60;7.82;;;;;;;23.00;100.00;100380.16;4867531;29;20037;-77
2021/07/05 04:34:54;;;;;;;11.30;7.35;;;;;;;22.91;100.00;100377.31;4867352;29;20033;-77
2021/07/05 04:37:41;;;;;;;10.18;7.43;;;;;;;23.14;100.00;100373.75;4867183;29;20037;-78
2021/07/05 04:40:31;;;;;;;12.63;8.02;;;;;;;22.82;100.00;100383.28;4866926;29;20097;-78
2021/07/05 04:43:17;;;;;;;11.80;7.70;;;;;;;22.47;100.00;100379.66;4868014;29;20124;-78
2021/07/05 04:46:05;;;;;;;11.13;7.53;;;;;;;22.97;100.00;100364.34;4880894;29;20049;-78
2021/07/05 04:48:54;;;;;;;8.70;7.30;;;;;;;23.13;100.00;100359.56;4867325;29;20040;-76
2021/07/05 04:51:39;;;;;;;12.38;7.70;;;;;;;23.20;100.00;100360.81;4880776;29;20396;-77
2021/07/05 04:54:25;;;;;;;13.05;7.50;;;;;;;22.98;100.00;100352.66;4881685;29;20032;-77
2021/07/05 04:57:11;;;;;;;14.25;7.40;;;;;;;23.48;100.00;100356.06;4881233;29;20048;-77
2021/07/05 04:59:57;;;;;;;12.30;7.43;;;;;;;23.18;100.00;100349.38;4880728;29;20047;-75
2021/07/05 05:02:43;;;;;;;8.38;7.22;;;;;;;23.32;100.00;100359.06;4881509;29;20021;-77
2021/07/05 05:05:30;;;;;;;7.90;7.03;;;;;;;23.47;100.00;100362.41;4881226;29;20339;-77
2021/07/05 05:08:16;;;;;;;10.13;7.80;;;;;;;23.40;100.00;100368.19;4880940;29;20029;-77
2021/07/05 05:11:02;;;;;;;10.75;8.30;;;;;;;23.64;100.00;100361.94;4867217;29;20123;-77
2021/07/05 05:13:48;;;;;;;10.10;7.25;;;;;;;23.30;100.00;100369.88;4881707;29;20510;-77
2021/07/05 05:16:34;;;;;;;8.73;7.55;;;;;;;23.27;100.00;100371.94;4881144;29;20101;-78
2021/07/05 05:19:20;;;;;;;10.60;7.63;;;;;;;23.58;100.00;100371.28;4885355;29;20391;-78
2021/07/05 05:22:08;;;;;;;12.02;7.63;;;;;;;23.04;100.00;100370.94;4884966;29;20069;-78
2021/07/05 05:24:53;;;;;;;14.65;8.32;;;;;;;23.38;100.00;100371.94;4885356;29;20455;-78
2021/07/05 05:27:40;;;;;;;8.98;8.07;;;;;;;23.67;100.00;100370.63;4884827;29;20060;-78
2021/07/05 05:30:26;;;;;;;11.05;7.90;;;;;;;23.67;100.00;100373.28;4885204;29;20032;-78
2021/07/05 05:33:12;;;;;;;12.00;8.60;;;;;;;22.96;100.00;100373.31;4885148;29;20097;-78
2021/07/05 05:35:57;;;;;;;10.93;8.82;;;;;;;23.43;100.00;100375.16;4870563;29;20036;-78
2021/07/05 05:38:48;;;;;;;11.98;8.93;;;;;;;22.95;100.00;100371.59;4884911;29;20052;-78
2021/07/05 05:41:34;;;;;;;14.68;9.40;;;;;;;23.29;100.00;100373.53;4870505;29;20366;-78
2021/07/05 05:44:19;;;;;;;12.43;8.40;;;;;;;23.40;100.00;100368.19;4884533;29;20049;-78
2021/07/05 05:47:05;;;;;;;10.43;8.27;;;;;;;23.55;100.00;100365.34;4884523;29;20033;-77
2021/07/05 05:49:51;;;;;;;12.95;8.00;;;;;;;23.42;100.00;100359.22;4884323;29;20093;-78
2021/07/05 05:52:37;;;;;;;12.32;7.95;;;;;;;24.07;100.00;100368.41;4884439;29;20203;-79
2021/07/05 05:55:23;;;;;;;10.43;8.50;;;;;;;23.96;100.00;100371.91;4872018;29;20044;-77
2021/07/05 05:58:09;;;;;;;11.50;8.13;;;;;;;23.91;100.00;100370.53;4884403;29;20029;-77
2021/07/05 06:00:54;;;;;;;10.05;7.88;;;;;;;24.14;100.00;100375.00;4884928;29;20047;-77
2021/07/05 06:03:40;;;;;;;12.30;8.40;;;;;;;24.33;100.00;100375.22;4883372;29;20029;-78
2021/07/05 06:06:26;;;;;;;11.55;7.80;;;;;;;24.47;100.00;100373.13;4884299;29;20459;-77
2021/07/05 06:09:12;;;;;;;10.05;7.45;;;;;;;24.28;100.00;100374.75;4884269;29;20443;-77
2021/07/05 06:11:58;;;;;;;11.57;8.23;;;;;;;24.50;100.00;100372.91;4884365;29;20025;-77
2021/07/05 06:14:44;;;;;;;10.65;7.43;;;;;;;24.33;100.00;100380.56;4870177;29;20052;-77
2021/07/05 06:17:30;;;;;;;12.57;7.35;;;;;;;25.11;100.00;100366.13;4884054;29;20033;-77
2021/07/05 06:20:17;;;;;;;13.52;7.90;;;;;;;25.26;100.00;100378.25;4884285;29;20040;-78
2021/07/05 06:23:06;;;;;;;14.95;9.30;;;;;;;25.06;100.00;100377.22;4883853;29;20411;-77
2021/07/05 06:25:53;;;;;;;10.82;7.80;;;;;;;24.56;100.00;100380.47;4884283;29;20124;-78
2021/07/05 06:28:40;;;;;;;11.38;7.38;;;;;;;24.86;100.00;100372.66;4868512;29;20029;-78
2021/07/05 06:31:26;;;;;;;9.30;7.55;;;;;;;24.97;100.00;100374.44;4869646;29;20048;-78
2021/07/05 06:34:22;;;;;;;9.38;7.18;;;;;;;24.87;100.00;100362.78;4870321;29;20041;-78
2021/07/05 06:37:08;;;;;;;10.10;7.93;;;;;;;25.28;100.00;100371.81;4869575;29;20104;-76
2021/07/05 06:39:54;;;;;;;9.18;6.90;;;;;;;25.47;100.00;100357.72;4883886;29;20446;-76
2021/07/05 06:42:40;;;;;;;9.35;6.93;;;;;;;25.13;100.00;100356.13;4883009;29;20048;-76
2021/07/05 06:45:26;;;;;;;12.65;6.88;;;;;;;25.51;100.00;100367.22;4869206;29;20072;-76
2021/07/05 06:48:14;;;;;;;7.60;6.57;;;;;;;25.95;100.00;100361.59;4883766;29;20053;-76
2021/07/05 06:51:00;;;;;;;7.72;6.43;;;;;;;25.84;100.00;100358.97;4883869;29;20449;-76
2021/07/05 06:53:45;;;;;;;12.65;6.20;;;;;;;25.96;100.00;100363.31;4883322;29;20052;-76
2021/07/05 06:56:55;;;;;;;11.07;6.10;;;;;;;25.99;100.00;100361.22;4883103;29;20128;-76
2021/07/05 06:59:44;;;;;;;9.45;6.53;;;;;;;25.89;100.00;100367.47;4883177;29;20033;-75
2021/07/05 07:02:32;;;;;;;9.45;6.30;;;;;;;26.06;100.00;100358.84;4870410;29;20025;-76
2021/07/05 07:05:22;;;;;;;8.15;5.35;;;;;;;26.18;100.00;100358.63;4882142;29;20181;-76
2021/07/05 07:08:08;;;;;;;6.38;5.35;;;;;;;26.45;100.00;100355.34;4869201;29;20446;-75
2021/07/05 07:10:56;;;;;;;6.03;5.20;;;;;;;26.33;100.00;100357.25;4882873;29;20192;-76
2021/07/05 07:13:42;;;;;;;9.13;5.45;;;;;;;26.19;100.00;100349.59;4883238;29;20040;-77
2021/07/05 10:51:15;;;;;;;7.90;4.45;;;;;;;31.96;65.64;100273.75;5187607;23;20507;-78
2021/07/05 10:54:07;;;;;;;7.90;4.30;;;;;;;31.22;66.69;100263.16;4864948;29;20470;-77
2021/07/05 10:56:53;;;;;;;6.10;4.10;;;;;;;31.42;69.09;100264.50;4864282;29;20124;-77
2021/07/05 10:59:41;;;;;;;5.60;4.40;;;;;;;31.35;70.59;100258.91;4863450;29;20150;-77
2021/07/05 11:02:57;;;;;;;8.65;4.40;;;;;;;32.00;66.95;100256.97;4864021;29;20033;-77
2021/07/05 11:05:45;;;;;;;5.57;4.15;;;;;;;32.22;64.56;100252.66;4859770;29;20033;-76
2021/07/05 11:08:42;;;;;;;4.28;3.90;;;;;;;32.89;61.93;100252.84;4864633;29;20029;-79
2021/07/05 11:11:31;;;;;;;6.35;4.18;;;;;;;31.59;65.29;100249.09;4864342;29;20025;-76
2021/07/05 11:14:17;;;;;;;6.22;4.30;;;;;;;32.09;64.93;100250.50;4864268;29;20029;-78
2021/07/05 11:17:04;;;;;;;5.18;3.95;;;;;;;31.84;63.53;100254.31;4850734;29;20030;-77
2021/07/05 11:19:55;;;;;;;6.43;4.30;;;;;;;31.88;65.03;100246.66;4864894;29;20033;-77
2021/07/05 11:23:00;;;;;;;10.43;4.50;;;;;;;32.43;62.35;100247.50;4864125;29;20041;-76
2021/07/05 11:25:46;;;;;;;6.00;4.10;;;;;;;32.83;59.16;100231.00;4850895;29;20028;-77
2021/07/05 11:28:32;;;;;;;8.63;4.15;;;;;;;33.05;59.50;100238.28;4850090;29;20040;-78
2021/07/05 11:31:20;;;;;;;7.10;4.40;;;;;;;32.72;59.17;100239.53;4863415;29;20056;-76
2021/07/05 11:34:27;;;;;;;7.15;3.95;;;;;;;33.21;59.31;100244.44;4850210;29;20090;-76
2021/07/05 11:37:13;;;;;;;6.65;3.92;;;;;;;33.24;56.98;100237.81;4863785;29;20044;-77
2021/07/05 11:39:59;;;;;;;6.15;4.00;;;;;;;32.01;57.22;100238.84;4862746;29;20033;-77
2021/07/05 11:42:58;;;;;;;5.20;3.95;;;;;;;31.73;56.76;100232.97;4862735;29;20037;-78
2021/07/05 11:45:53;;;;;;;4.95;3.60;;;;;;;30.89;60.31;100239.75;4864156;29;20043;-77
2021/07/05 11:48:39;;;;;;;5.50;4.25;;;;;;;31.24;60.31;100234.91;4862690;29;20032;-77
2021/07/05 11:51:33;;;;;;;9.07;3.90;;;;;;;31.56;60.86;100235.88;4849323;29;20147;-77
2021/07/05 11:54:36;;;;;;;5.00;3.97;;;;;;;31.86;60.91;100235.19;4863020;29;20029;-76
2021/07/05 11:57:21;;;;;;;5.50;4.30;;;;;;;31.93;60.24;100234.28;4862734;29;20040;-78
2021/07/05 12:00:08;;;;;;;8.43;3.85;;;;;;;32.23;60.55;100233.50;4863312;29;20476;-77
2021/07/05 12:03:04;;;;;;;5.88;3.97;;;;;;;32.94;58.04;100217.84;4863239;29;20074;-76
2021/07/05 12:06:00;;;;;;;7.25;3.95;;;;;;;32.90;57.28;100218.41;4863583;29;20034;-76
2021/07/05 12:08:57;;;;;;;5.10;4.10;;;;;;;32.66;57.32;100221.25;4863002;29;20032;-76
2021/07/05 12:11:47;;;;;;;5.78;3.92;;;;;;;32.66;56.02;100216.66;4862834;29;20340;-78
2021/07/05 12:14:33;;;;;;;5.20;3.70;;;;;;;32.52;56.48;100220.16;4863205;29;20044;-78
2021/07/05 12:17:22;;;;;;;4.63;3.85;;;;;;;32.63;58.61;100210.75;4863166;29;20132;-76
2021/07/05 12:20:08;;;;;;;9.30;4.13;;;;;;;32.27;58.21;100213.16;4862175;29;20073;-76
2021/07/05 12:23:05;;;;;;;4.38;3.88;;;;;;;32.39;59.12;100219.03;4862693;29;20033;-78
2021/07/05 12:25:51;;;;;;;6.60;4.13;;;;;;;32.01;60.79;100215.28;4863087;29;20470;-77
2021/07/05 12:28:37;;;;;;;10.82;4.00;;;;;;;32.77;58.83;100216.25;4862365;29;20025;-76
2021/07/05 12:31:23;;;;;;;4.55;3.78;;;;;;;32.55;58.91;100214.38;4862786;29;20037;-76
2021/07/05 12:34:08;;;;;;;6.72;3.65;;;;;;;32.59;60.00;100209.44;4861768;29;20455;-76
2021/07/05 12:36:54;;;;;;;4.95;3.90;;;;;;;32.84;59.54;100205.56;4863289;29;20128;-76
2021/07/05 12:39:43;;;;;;;7.65;3.85;;;;;;;33.18;57.61;100208.69;4862860;29;20065;-75
2021/07/05 12:42:36;;;;;;;5.78;3.80;;;;;;;32.86;59.30;100203.50;4862700;29;20340;-77
2021/07/05 12:45:36;;;;;;;5.30;4.25;;;;;;;32.59;60.18;100204.00;4862256;29;20352;-77
2021/07/05 12:48:31;;;;;;;6.35;4.10;;;;;;;32.98;58.91;100202.06;4863106;29;20053;-76
2021/07/05 12:51:16;;;;;;;13.75;4.28;;;;;;;33.11;57.90;100205.81;4862185;29;20053;-75
2021/07/05 12:54:19;;;;;;;5.45;3.63;;;;;;;33.49;56.59;100201.25;4862520;29;20057;-76
2021/07/05 12:57:16;;;;;;;8.68;3.83;;;;;;;33.77;56.25;100210.47;4863309;29;20041;-77
2021/07/05 13:00:07;;;;;;;6.82;3.63;;;;;;;34.06;53.03;100207.75;4863541;29;20116;-76
2021/07/05 13:03:08;;;;;;;12.25;4.45;;;;;;;32.77;54.71;100197.25;4861899;29;20037;-76
2021/07/05 13:06:07;;;;;;;7.00;3.90;;;;;;;32.38;57.04;100203.81;4850249;29;20630;-77
2021/07/05 13:09:01;;;;;;;8.65;4.13;;;;;;;32.43;59.22;100195.97;4850719;29;20034;-77
2021/07/05 13:11:53;;;;;;;6.82;4.20;;;;;;;32.37;60.09;100202.94;4863521;29;20360;-76
2021/07/05 13:14:42;;;;;;;5.18;3.88;;;;;;;32.40;58.59;100185.47;4863027;29;20068;-77
2021/07/05 13:17:33;;;;;;;6.03;3.70;;;;;;;32.85;57.51;100188.22;4849681;29;20043;-77
2021/07/05 13:20:20;;;;;;;9.73;3.88;;;;;;;32.96;58.83;100191.38;4850010;29;20034;-76
2021/07/05 13:23:07;;;;;;;8.48;3.72;;;;;;;33.12;58.19;100188.53;4849746;29;20038;-76
2021/07/05 13:25:56;;;;;;;6.80;3.90;;;;;;;33.07;59.17;100190.91;4863061;29;20030;-77
2021/07/05 13:28:51;;;;;;;5.15;3.80;;;;;;;32.08;55.96;100181.03;4863583;29;20041;-77
2021/07/05 13:31:39;;;;;;;4.22;3.63;;;;;;;31.55;59.32;100178.16;4862732;29;20405;-77
2021/07/05 13:34:39;;;;;;;5.82;3.65;;;;;;;32.30;58.33;100174.84;4862216;29;20049;-77
2021/07/05 13:37:41;;;;;;;5.63;3.42;;;;;;;32.86;54.66;100174.47;4862939;29;20089;-77
2021/07/05 13:40:28;;;;;;;7.70;3.80;;;;;;;33.18;52.74;100176.09;4851535;29;20041;-77
2021/07/05 13:43:17;;;;;;;5.40;3.35;;;;;;;32.80;51.38;100174.34;4866880;29;20116;-77
2021/07/05 13:46:03;;;;;;;17.52;4.13;;;;;;;33.11;52.54;100181.38;4866697;29;20093;-77
2021/07/05 13:48:49;;;;;;;6.38;3.35;;;;;;;32.48;51.98;100177.28;4852998;29;20029;-77
2021/07/05 13:51:36;;;;;;;7.32;3.47;;;;;;;32.69;52.10;100177.47;4865831;29;20057;-77
2021/07/05 13:54:29;;;;;;;13.50;3.92;;;;;;;33.16;51.97;100183.56;4865952;29;20071;-77
2021/07/05 13:57:20;;;;;;;6.47;3.53;;;;;;;33.20;50.02;100188.44;4864812;29;20037;-78
2021/07/05 14:00:06;;;;;;;5.97;4.10;;;;;;;33.48;50.70;100177.84;4851892;29;20110;-77
2021/07/05 14:02:53;;;;;;;5.57;3.47;;;;;;;33.16;51.19;100175.41;4867193;29;20033;-76
2021/07/05 14:05:39;;;;;;;5.78;3.30;;;;;;;32.90;51.28;100169.56;4865386;29;20037;-77
2021/07/05 14:08:26;;;;;;;8.13;3.30;;;;;;;32.92;50.15;100167.47;4864470;29;20033;-77
2021/07/05 14:11:13;;;;;;;9.00;3.10;;;;;;;33.13;48.51;100173.06;4851726;29;20030;-77
2021/07/05 14:13:59;;;;;;;6.45;3.25;;;;;;;32.47;50.30;100167.47;4853036;29;20100;-78
2021/07/05 14:16:45;;;;;;;4.47;3.67;;;;;;;32.37;49.50;100170.41;4865935;29;20033;-77
2021/07/05 14:19:30;;;;;;;5.25;3.63;;;;;;;32.64;49.96;100159.03;4864281;29;20125;-78
2021/07/05 14:22:19;;;;;;;5.30;3.38;;;;;;;32.27;50.76;100156.22;4865926;29;20124;-78
2021/07/05 14:25:07;;;;;;;5.35;3.55;;;;;;;32.30;51.03;100168.59;4853176;29;20041;-77
2021/07/05 14:27:53;;;;;;;7.82;3.50;;;;;;;32.23;49.91;100160.31;4864826;29;20033;-78
2021/07/05 14:30:40;;;;;;;4.43;3.13;;;;;;;32.51;48.53;100155.22;4865489;29;20116;-78
2021/07/05 14:33:27;;;;;;;3.65;3.22;;;;;;;32.35;50.27;100156.19;4852016;29;20037;-76
2021/07/05 14:36:15;;;;;;;4.47;3.30;;;;;;;33.04;49.28;100166.03;4865110;29;20037;-76
2021/07/05 14:39:01;;;;;;;5.20;3.38;;;;;;;32.91;50.96;100165.81;4865742;29;20065;-77
2021/07/05 14:41:47;;;;;;;8.32;3.08;;;;;;;32.67;47.11;100153.25;4863589;29;20041;-76
2021/07/05 14:44:33;;;;;;;6.80;3.40;;;;;;;32.97;45.77;100157.78;4852410;29;20044;-76
2021/07/05 14:47:20;;;;;;;3.65;2.95;;;;;;;32.45;45.95;100145.94;4863652;29;20033;-76
2021/07/05 14:50:09;;;;;;;8.30;3.45;;;;;;;32.59;48.17;100149.75;4863168;29;20049;-75
2021/07/05 14:52:55;;;;;;;7.28;3.30;;;;;;;32.63;46.74;100151.06;4865510;29;20101;-75
2021/07/05 14:55:42;;;;;;;6.60;3.10;;;;;;;32.74;47.69;100147.94;4864317;29;20034;-76
2021/07/05 14:58:28;;;;;;;6.53;3.25;;;;;;;32.56;48.04;100150.97;4864570;29;20124;-75
2021/07/05 15:01:13;;;;;;;8.40;3.30;;;;;;;32.59;47.12;100147.03;4864719;29;20191;-75
2021/07/05 15:03:59;;;;;;;10.20;3.15;;;;;;;32.25;45.70;100162.81;4864338;29;20056;-75
2021/07/05 15:06:45;;;;;;;4.72;3.13;;;;;;;32.49;45.84;100147.25;4865238;29;20033;-75
2021/07/05 15:09:32;;;;;;;6.90;2.95;;;;;;;32.68;46.91;100156.78;4864651;29;20033;-76
2021/07/05 15:12:18;;;;;;;6.82;2.95;;;;;;;32.83;45.07;100152.31;4863650;29;20419;-76
2021/07/05 15:15:06;;;;;;;5.55;2.72;;;;;;;32.31;44.11;100154.00;4864616;29;20041;-76
2021/07/05 15:17:52;;;;;;;7.63;3.20;;;;;;;32.34;45.59;100151.75;4850752;29;20029;-76
2021/07/05 15:20:38;;;;;;;3.55;2.80;;;;;;;32.33;46.57;100162.78;4864513;29;20037;-76
2021/07/05 15:23:25;;;;;;;7.60;3.22;;;;;;;32.32;45.71;100156.53;4865093;29;20045;-76
2021/07/05 15:26:10;;;;;;;6.18;3.05;;;;;;;32.87;45.52;100153.63;4864450;29;20061;-76
2021/07/05 15:28:56;;;;;;;4.47;2.90;;;;;;;32.82;44.19;100153.34;4864444;29;20103;-76
2021/07/05 15:31:42;;;;;;;4.28;3.05;;;;;;;33.11;45.06;100153.41;4863883;29;20044;-76
2021/07/05 15:34:28;;;;;;;3.13;2.83;;;;;;;32.75;44.29;100160.47;4863667;29;20033;-76
2021/07/05 15:37:14;;;;;;;6.00;3.15;;;;;;;33.24;43.74;100154.47;4863998;29;20033;-76
2021/07/05 15:40:00;;;;;;;7.45;3.00;;;;;;;33.36;43.14;100163.03;4851363;29;20036;-76
2021/07/05 15:42:47;;;;;;;5.15;3.10;;;;;;;33.49;44.31;100160.50;4863950;29;20121;-76
2021/07/05 15:45:32;;;;;;;3.95;3.20;;;;;;;32.95;45.42;100158.97;4863316;29;20037;-75
2021/07/05 15:48:19;;;;;;;7.32;3.67;;;;;;;32.94;46.27;100160.03;4863778;29;20131;-75
2021/07/05 15:51:05;;;;;;;4.53;3.00;;;;;;;32.77;46.03;100161.97;4863460;29;20066;-76
2021/07/05 15:53:50;;;;;;;6.50;3.10;;;;;;;33.06;46.54;100167.53;4863492;29;20563;-75
2021/07/05 15:56:36;;;;;;;6.53;3.17;;;;;;;32.65;47.13;100168.84;4850587;29;20037;-75
2021/07/05 15:59:22;;;;;;;5.47;3.40;;;;;;;32.61;46.77;100172.94;4850817;29;20053;-75
2021/07/05 16:02:08;;;;;;;7.80;3.40;;;;;;;32.72;46.94;100187.97;4862107;29;20043;-75
2021/07/05 16:04:54;;;;;;;17.27;5.07;;;;;;;29.71;98.71;100208.41;4850339;29;20542;-75
2021/07/05 16:07:40;;;;;;;15.20;5.20;;;;;;;29.11;100.00;100205.75;4864258;29;20037;-75
2021/07/05 16:10:26;;;;;;;13.88;5.57;;;;;;;28.40;100.00;100215.63;4862084;29;20044;-75
2021/07/05 16:13:12;;;;;;;9.35;5.68;;;;;;;28.15;100.00;100226.28;4864023;29;20128;-75
2021/07/05 16:15:58;;;;;;;17.70;5.93;;;;;;;27.49;100.00;100220.16;4850883;29;20061;-75
2021/07/05 16:18:45;;;;;;;17.83;6.07;;;;;;;27.65;100.00;100214.16;4851548;29;20047;-78
2021/07/05 16:21:31;;;;;;;14.57;6.15;;;;;;;27.15;100.00;100219.78;4864747;29;20037;-76
2021/07/05 16:24:16;;;;;;;14.05;6.88;;;;;;;27.25;100.00;100217.09;4863788;29;20025;-76
2021/07/05 16:27:02;;;;;;;18.77;7.32;;;;;;;27.12;100.00;100240.72;4861641;29;20033;-76
2021/07/05 16:29:48;;;;;;;18.20;7.90;;;;;;;27.11;100.00;100239.88;4862498;29;20025;-76